sensor_id;sensor_type;location;lat;lon;timestamp;P1;durP1;ratioP1;P2;durP2;ratioP2
15287;SDS011;7745;48.708;9.026;2023-02-11T00:00:53;43.33;;;23.43;;
15287;SDS011;7745;48.708;9.026;2023-02-11T00:03:20;35.03;;;20.43;;
15287;SDS011;7745;48.708;9.026;2023-02-11T00:05:55;37.50;;;20.73;;
15287;SDS011;7745;48.708;9.026;2023-02-11T00:08:22;38.23;;;22.67;;
15287;SDS011;7745;48.708;9.026;2023-02-11T00:10:51;40.00;;;22.53;;
15287;SDS011;7745;48.708;9.026;2023-02-11T00:13:19;36.80;;;22.73;;
15287;SDS011;7745;48.708;9.026;2023-02-11T00:15:45;42.27;;;23.50;;
15287;SDS011;7745;48.708;9.026;2023-02-11T00:18:12;39.97;;;22.50;;
15287;SDS011;7745;48.708;9.026;2023-02-11T00:20:39;38.13;;;23.40;;
15287;SDS011;7745;48.708;9.026;2023-02-11T00:23:06;36.33;;;21.57;;
15287;SDS011;7745;48.708;9.026;2023-02-11T00:25:37;37.57;;;22.57;;
15287;SDS011;7745;48.708;9.026;2023-02-11T00:28:06;36.70;;;22.90;;
15287;SDS011;7745;48.708;9.026;2023-02-11T00:30:32;36.30;;;22.00;;
15287;SDS011;7745;48.708;9.026;2023-02-11T00:32:59;38.00;;;22.30;;
15287;SDS011;7745;48.708;9.026;2023-02-11T00:35:26;36.10;;;21.77;;
15287;SDS011;7745;48.708;9.026;2023-02-11T00:37:53;36.87;;;21.40;;
15287;SDS011;7745;48.708;9.026;2023-02-11T00:40:21;36.83;;;22.27;;
15287;SDS011;7745;48.708;9.026;2023-02-11T00:42:48;34.70;;;21.27;;
15287;SDS011;7745;48.708;9.026;2023-02-11T00:45:16;36.10;;;20.53;;
15287;SDS011;7745;48.708;9.026;2023-02-11T00:47:44;41.53;;;22.23;;
15287;SDS011;7745;48.708;9.026;2023-02-11T00:50:11;39.40;;;22.33;;
15287;SDS011;7745;48.708;9.026;2023-02-11T00:52:38;40.30;;;22.77;;
15287;SDS011;7745;48.708;9.026;2023-02-11T00:55:05;34.47;;;20.53;;
15287;SDS011;7745;48.708;9.026;2023-02-11T00:57:33;37.27;;;22.30;;
15287;SDS011;7745;48.708;9.026;2023-02-11T01:00:00;37.50;;;21.33;;
15287;SDS011;7745;48.708;9.026;2023-02-11T01:02:28;38.77;;;21.50;;
15287;SDS011;7745;48.708;9.026;2023-02-11T01:04:55;37.23;;;21.90;;
15287;SDS011;7745;48.708;9.026;2023-02-11T01:07:23;35.33;;;19.93;;
15287;SDS011;7745;48.708;9.026;2023-02-11T01:09:50;40.80;;;21.07;;
15287;SDS011;7745;48.708;9.026;2023-02-11T01:12:17;38.17;;;22.27;;
15287;SDS011;7745;48.708;9.026;2023-02-11T01:14:43;42.37;;;23.23;;
15287;SDS011;7745;48.708;9.026;2023-02-11T01:17:10;39.23;;;22.63;;
15287;SDS011;7745;48.708;9.026;2023-02-11T01:19:39;36.97;;;21.97;;
15287;SDS011;7745;48.708;9.026;2023-02-11T01:22:05;38.87;;;22.17;;
15287;SDS011;7745;48.708;9.026;2023-02-11T01:24:32;33.70;;;21.50;;
15287;SDS011;7745;48.708;9.026;2023-02-11T01:26:59;39.30;;;21.17;;
15287;SDS011;7745;48.708;9.026;2023-02-11T01:29:29;39.70;;;21.03;;
15287;SDS011;7745;48.708;9.026;2023-02-11T01:31:56;39.20;;;20.57;;
15287;SDS011;7745;48.708;9.026;2023-02-11T01:34:22;38.53;;;21.77;;
15287;SDS011;7745;48.708;9.026;2023-02-11T01:36:50;34.40;;;21.30;;
15287;SDS011;7745;48.708;9.026;2023-02-11T01:39:22;36.23;;;20.60;;
15287;SDS011;7745;48.708;9.026;2023-02-11T01:41:49;38.30;;;21.10;;
15287;SDS011;7745;48.708;9.026;2023-02-11T01:44:23;38.77;;;21.97;;
15287;SDS011;7745;48.708;9.026;2023-02-11T01:46:51;40.83;;;22.03;;
15287;SDS011;7745;48.708;9.026;2023-02-11T01:49:19;35.93;;;20.93;;
15287;SDS011;7745;48.708;9.026;2023-02-11T01:51:50;36.83;;;21.33;;
15287;SDS011;7745;48.708;9.026;2023-02-11T01:54:21;37.30;;;21.17;;
15287;SDS011;7745;48.708;9.026;2023-02-11T01:57:12;34.60;;;20.57;;
15287;SDS011;7745;48.708;9.026;2023-02-11T01:59:49;36.63;;;22.17;;
15287;SDS011;7745;48.708;9.026;2023-02-11T02:02:22;36.40;;;21.20;;
15287;SDS011;7745;48.708;9.026;2023-02-11T02:04:53;41.30;;;20.73;;
15287;SDS011;7745;48.708;9.026;2023-02-11T02:07:26;37.83;;;21.47;;
15287;SDS011;7745;48.708;9.026;2023-02-11T02:09:59;38.97;;;21.77;;
15287;SDS011;7745;48.708;9.026;2023-02-11T02:12:30;33.77;;;19.70;;
15287;SDS011;7745;48.708;9.026;2023-02-11T02:17:57;34.17;;;20.73;;
15287;SDS011;7745;48.708;9.026;2023-02-11T02:20:38;41.60;;;21.13;;
15287;SDS011;7745;48.708;9.026;2023-02-11T02:23:51;34.83;;;21.37;;
15287;SDS011;7745;48.708;9.026;2023-02-11T02:26:51;36.90;;;21.27;;
15287;SDS011;7745;48.708;9.026;2023-02-11T02:29:36;35.07;;;21.70;;
15287;SDS011;7745;48.708;9.026;2023-02-11T02:32:40;36.70;;;21.30;;
15287;SDS011;7745;48.708;9.026;2023-02-11T02:35:18;39.87;;;22.20;;
15287;SDS011;7745;48.708;9.026;2023-02-11T02:37:54;36.83;;;22.23;;
15287;SDS011;7745;48.708;9.026;2023-02-11T02:40:26;39.10;;;23.03;;
15287;SDS011;7745;48.708;9.026;2023-02-11T02:42:56;35.30;;;21.27;;
15287;SDS011;7745;48.708;9.026;2023-02-11T02:45:25;40.10;;;21.30;;
15287;SDS011;7745;48.708;9.026;2023-02-11T02:47:54;41.63;;;22.63;;
15287;SDS011;7745;48.708;9.026;2023-02-11T02:50:22;35.03;;;21.17;;
15287;SDS011;7745;48.708;9.026;2023-02-11T02:52:55;38.60;;;22.67;;
15287;SDS011;7745;48.708;9.026;2023-02-11T02:55:33;34.67;;;21.57;;
15287;SDS011;7745;48.708;9.026;2023-02-11T02:58:32;37.93;;;22.07;;
15287;SDS011;7745;48.708;9.026;2023-02-11T03:01:17;37.17;;;21.73;;
15287;SDS011;7745;48.708;9.026;2023-02-11T03:03:53;36.90;;;22.20;;
15287;SDS011;7745;48.708;9.026;2023-02-11T03:06:27;35.67;;;22.33;;
15287;SDS011;7745;48.708;9.026;2023-02-11T03:09:00;37.57;;;21.07;;
15287;SDS011;7745;48.708;9.026;2023-02-11T03:11:31;40.70;;;22.60;;
15287;SDS011;7745;48.708;9.026;2023-02-11T03:13:59;38.23;;;22.13;;
15287;SDS011;7745;48.708;9.026;2023-02-11T03:16:28;38.90;;;21.60;;
15287;SDS011;7745;48.708;9.026;2023-02-11T03:19:04;39.77;;;22.47;;
15287;SDS011;7745;48.708;9.026;2023-02-11T03:21:33;37.20;;;22.20;;
15287;SDS011;7745;48.708;9.026;2023-02-11T03:24:05;36.80;;;22.80;;
15287;SDS011;7745;48.708;9.026;2023-02-11T03:26:36;39.00;;;22.27;;
15287;SDS011;7745;48.708;9.026;2023-02-11T03:29:07;38.80;;;22.60;;
15287;SDS011;7745;48.708;9.026;2023-02-11T03:31:40;39.40;;;22.73;;
15287;SDS011;7745;48.708;9.026;2023-02-11T03:34:17;37.03;;;22.83;;
15287;SDS011;7745;48.708;9.026;2023-02-11T03:36:47;40.33;;;22.80;;
15287;SDS011;7745;48.708;9.026;2023-02-11T03:39:21;35.07;;;21.70;;
15287;SDS011;7745;48.708;9.026;2023-02-11T03:41:52;38.70;;;23.40;;
15287;SDS011;7745;48.708;9.026;2023-02-11T03:44:24;36.70;;;22.27;;
15287;SDS011;7745;48.708;9.026;2023-02-11T03:46:54;37.13;;;21.07;;
15287;SDS011;7745;48.708;9.026;2023-02-11T03:49:22;40.27;;;22.63;;
15287;SDS011;7745;48.708;9.026;2023-02-11T03:51:53;41.07;;;23.37;;
15287;SDS011;7745;48.708;9.026;2023-02-11T03:54:23;39.30;;;23.10;;
15287;SDS011;7745;48.708;9.026;2023-02-11T03:56:54;37.90;;;23.67;;
15287;SDS011;7745;48.708;9.026;2023-02-11T03:59:23;41.87;;;25.00;;
15287;SDS011;7745;48.708;9.026;2023-02-11T04:01:50;44.37;;;24.70;;
15287;SDS011;7745;48.708;9.026;2023-02-11T04:04:17;43.57;;;25.70;;
15287;SDS011;7745;48.708;9.026;2023-02-11T04:06:46;46.13;;;25.97;;
15287;SDS011;7745;48.708;9.026;2023-02-11T04:09:12;49.83;;;24.73;;
15287;SDS011;7745;48.708;9.026;2023-02-11T04:11:40;37.30;;;24.17;;
15287;SDS011;7745;48.708;9.026;2023-02-11T04:14:07;42.80;;;25.37;;
15287;SDS011;7745;48.708;9.026;2023-02-11T04:16:33;39.13;;;22.70;;
15287;SDS011;7745;48.708;9.026;2023-02-11T04:19:00;35.23;;;21.87;;
15287;SDS011;7745;48.708;9.026;2023-02-11T04:21:27;40.43;;;23.70;;
15287;SDS011;7745;48.708;9.026;2023-02-11T04:23:55;42.27;;;22.83;;
15287;SDS011;7745;48.708;9.026;2023-02-11T04:26:22;38.20;;;23.73;;
15287;SDS011;7745;48.708;9.026;2023-02-11T04:28:49;41.50;;;24.03;;
15287;SDS011;7745;48.708;9.026;2023-02-11T04:31:15;39.73;;;23.83;;
15287;SDS011;7745;48.708;9.026;2023-02-11T04:33:42;37.80;;;23.10;;
15287;SDS011;7745;48.708;9.026;2023-02-11T04:36:09;36.40;;;22.07;;
15287;SDS011;7745;48.708;9.026;2023-02-11T04:38:36;38.03;;;22.70;;
15287;SDS011;7745;48.708;9.026;2023-02-11T04:41:04;40.80;;;23.30;;
15287;SDS011;7745;48.708;9.026;2023-02-11T04:43:31;46.47;;;25.70;;
15287;SDS011;7745;48.708;9.026;2023-02-11T04:45:57;48.97;;;24.67;;
15287;SDS011;7745;48.708;9.026;2023-02-11T04:48:25;41.00;;;24.47;;
15287;SDS011;7745;48.708;9.026;2023-02-11T04:50:51;38.03;;;22.87;;
15287;SDS011;7745;48.708;9.026;2023-02-11T04:53:19;40.87;;;24.40;;
15287;SDS011;7745;48.708;9.026;2023-02-11T04:55:47;37.13;;;23.27;;
15287;SDS011;7745;48.708;9.026;2023-02-11T04:58:15;39.47;;;23.77;;
15287;SDS011;7745;48.708;9.026;2023-02-11T05:00:42;44.17;;;24.20;;
15287;SDS011;7745;48.708;9.026;2023-02-11T05:03:10;41.17;;;23.57;;
15287;SDS011;7745;48.708;9.026;2023-02-11T05:05:37;39.87;;;25.33;;
15287;SDS011;7745;48.708;9.026;2023-02-11T05:08:05;39.13;;;23.60;;
15287;SDS011;7745;48.708;9.026;2023-02-11T05:10:32;39.87;;;24.57;;
15287;SDS011;7745;48.708;9.026;2023-02-11T05:12:59;38.67;;;23.57;;
15287;SDS011;7745;48.708;9.026;2023-02-11T05:15:27;38.93;;;23.83;;
15287;SDS011;7745;48.708;9.026;2023-02-11T05:17:54;38.53;;;23.43;;
15287;SDS011;7745;48.708;9.026;2023-02-11T05:20:21;38.20;;;23.73;;
15287;SDS011;7745;48.708;9.026;2023-02-11T05:22:48;39.37;;;23.97;;
15287;SDS011;7745;48.708;9.026;2023-02-11T05:25:15;39.57;;;24.20;;
15287;SDS011;7745;48.708;9.026;2023-02-11T05:27:42;35.17;;;23.00;;
15287;SDS011;7745;48.708;9.026;2023-02-11T05:30:09;40.07;;;24.43;;
15287;SDS011;7745;48.708;9.026;2023-02-11T05:32:38;38.47;;;23.03;;
15287;SDS011;7745;48.708;9.026;2023-02-11T05:35:05;39.87;;;24.20;;
15287;SDS011;7745;48.708;9.026;2023-02-11T05:37:32;36.97;;;23.00;;
15287;SDS011;7745;48.708;9.026;2023-02-11T05:39:58;41.43;;;24.40;;
15287;SDS011;7745;48.708;9.026;2023-02-11T05:42:25;36.60;;;23.40;;
15287;SDS011;7745;48.708;9.026;2023-02-11T05:44:52;38.50;;;24.30;;
15287;SDS011;7745;48.708;9.026;2023-02-11T05:47:19;45.97;;;25.37;;
15287;SDS011;7745;48.708;9.026;2023-02-11T05:49:47;42.37;;;24.23;;
15287;SDS011;7745;48.708;9.026;2023-02-11T05:52:14;42.80;;;24.60;;
15287;SDS011;7745;48.708;9.026;2023-02-11T05:54:41;38.03;;;23.87;;
15287;SDS011;7745;48.708;9.026;2023-02-11T05:57:07;39.90;;;24.00;;
15287;SDS011;7745;48.708;9.026;2023-02-11T05:59:34;38.47;;;23.53;;
15287;SDS011;7745;48.708;9.026;2023-02-11T06:02:01;36.60;;;24.07;;
15287;SDS011;7745;48.708;9.026;2023-02-11T06:04:28;40.07;;;23.80;;
15287;SDS011;7745;48.708;9.026;2023-02-11T06:06:56;38.17;;;24.43;;
15287;SDS011;7745;48.708;9.026;2023-02-11T06:09:23;36.93;;;23.50;;
15287;SDS011;7745;48.708;9.026;2023-02-11T06:11:50;36.57;;;24.33;;
15287;SDS011;7745;48.708;9.026;2023-02-11T06:14:18;45.17;;;24.67;;
15287;SDS011;7745;48.708;9.026;2023-02-11T06:16:45;45.57;;;25.60;;
15287;SDS011;7745;48.708;9.026;2023-02-11T06:19:12;38.87;;;24.10;;
15287;SDS011;7745;48.708;9.026;2023-02-11T06:21:38;38.27;;;23.43;;
15287;SDS011;7745;48.708;9.026;2023-02-11T06:24:07;39.37;;;24.13;;
15287;SDS011;7745;48.708;9.026;2023-02-11T06:26:34;37.53;;;23.77;;
15287;SDS011;7745;48.708;9.026;2023-02-11T06:29:01;39.43;;;24.60;;
15287;SDS011;7745;48.708;9.026;2023-02-11T06:31:27;40.07;;;24.83;;
15287;SDS011;7745;48.708;9.026;2023-02-11T06:33:54;38.03;;;23.90;;
15287;SDS011;7745;48.708;9.026;2023-02-11T06:36:22;40.07;;;25.40;;
15287;SDS011;7745;48.708;9.026;2023-02-11T06:38:49;38.37;;;23.70;;
15287;SDS011;7745;48.708;9.026;2023-02-11T06:41:17;36.03;;;23.57;;
15287;SDS011;7745;48.708;9.026;2023-02-11T06:43:45;37.73;;;23.53;;
15287;SDS011;7745;48.708;9.026;2023-02-11T06:46:13;38.40;;;24.87;;
15287;SDS011;7745;48.708;9.026;2023-02-11T06:48:40;40.73;;;24.57;;
15287;SDS011;7745;48.708;9.026;2023-02-11T06:51:08;37.60;;;23.60;;
15287;SDS011;7745;48.708;9.026;2023-02-11T06:53:36;39.53;;;25.73;;
15287;SDS011;7745;48.708;9.026;2023-02-11T06:56:06;39.13;;;24.17;;
15287;SDS011;7745;48.708;9.026;2023-02-11T06:58:35;41.50;;;23.50;;
15287;SDS011;7745;48.708;9.026;2023-02-11T07:01:02;36.23;;;22.83;;
15287;SDS011;7745;48.708;9.026;2023-02-11T07:03:31;37.67;;;24.33;;
15287;SDS011;7745;48.708;9.026;2023-02-11T07:05:58;38.27;;;23.30;;
15287;SDS011;7745;48.708;9.026;2023-02-11T07:08:25;35.33;;;23.33;;
15287;SDS011;7745;48.708;9.026;2023-02-11T07:10:54;37.23;;;23.70;;
15287;SDS011;7745;48.708;9.026;2023-02-11T07:13:20;39.80;;;23.67;;
15287;SDS011;7745;48.708;9.026;2023-02-11T07:15:49;39.10;;;24.50;;
15287;SDS011;7745;48.708;9.026;2023-02-11T07:18:15;35.07;;;23.23;;
15287;SDS011;7745;48.708;9.026;2023-02-11T07:20:42;36.63;;;23.80;;
15287;SDS011;7745;48.708;9.026;2023-02-11T07:23:09;37.73;;;23.17;;
15287;SDS011;7745;48.708;9.026;2023-02-11T07:25:36;34.17;;;22.47;;
15287;SDS011;7745;48.708;9.026;2023-02-11T07:28:03;37.80;;;23.67;;
15287;SDS011;7745;48.708;9.026;2023-02-11T07:30:30;38.00;;;23.83;;
15287;SDS011;7745;48.708;9.026;2023-02-11T07:32:58;39.57;;;24.50;;
15287;SDS011;7745;48.708;9.026;2023-02-11T07:35:25;35.40;;;23.07;;
15287;SDS011;7745;48.708;9.026;2023-02-11T07:37:51;37.93;;;24.27;;
15287;SDS011;7745;48.708;9.026;2023-02-11T07:40:18;39.07;;;24.60;;
15287;SDS011;7745;48.708;9.026;2023-02-11T07:42:45;37.33;;;25.47;;
15287;SDS011;7745;48.708;9.026;2023-02-11T07:45:12;35.97;;;24.40;;
15287;SDS011;7745;48.708;9.026;2023-02-11T07:47:40;36.53;;;24.33;;
15287;SDS011;7745;48.708;9.026;2023-02-11T07:50:09;39.10;;;25.00;;
15287;SDS011;7745;48.708;9.026;2023-02-11T07:52:36;32.97;;;23.33;;
15287;SDS011;7745;48.708;9.026;2023-02-11T07:55:02;37.33;;;24.23;;
15287;SDS011;7745;48.708;9.026;2023-02-11T07:57:30;36.43;;;23.57;;
15287;SDS011;7745;48.708;9.026;2023-02-11T07:59:56;36.87;;;24.00;;
15287;SDS011;7745;48.708;9.026;2023-02-11T08:02:23;36.90;;;24.17;;
15287;SDS011;7745;48.708;9.026;2023-02-11T08:04:50;36.37;;;25.07;;
15287;SDS011;7745;48.708;9.026;2023-02-11T08:07:18;39.13;;;25.67;;
15287;SDS011;7745;48.708;9.026;2023-02-11T08:09:45;39.13;;;25.87;;
15287;SDS011;7745;48.708;9.026;2023-02-11T08:12:12;40.07;;;25.10;;
15287;SDS011;7745;48.708;9.026;2023-02-11T08:14:39;37.27;;;24.93;;
15287;SDS011;7745;48.708;9.026;2023-02-11T08:17:08;36.87;;;25.07;;
15287;SDS011;7745;48.708;9.026;2023-02-11T08:19:34;35.43;;;24.50;;
15287;SDS011;7745;48.708;9.026;2023-02-11T08:22:01;36.30;;;25.10;;
15287;SDS011;7745;48.708;9.026;2023-02-11T08:24:29;36.47;;;25.77;;
15287;SDS011;7745;48.708;9.026;2023-02-11T08:26:56;35.97;;;23.17;;
15287;SDS011;7745;48.708;9.026;2023-02-11T08:29:23;34.57;;;23.93;;
15287;SDS011;7745;48.708;9.026;2023-02-11T08:31:52;34.33;;;22.00;;
15287;SDS011;7745;48.708;9.026;2023-02-11T08:34:19;35.17;;;22.73;;
15287;SDS011;7745;48.708;9.026;2023-02-11T08:36:46;30.07;;;21.20;;
15287;SDS011;7745;48.708;9.026;2023-02-11T08:39:15;29.20;;;19.40;;
15287;SDS011;7745;48.708;9.026;2023-02-11T08:41:44;35.57;;;21.43;;
15287;SDS011;7745;48.708;9.026;2023-02-11T08:44:12;28.37;;;19.83;;
15287;SDS011;7745;48.708;9.026;2023-02-11T08:46:42;30.87;;;22.07;;
15287;SDS011;7745;48.708;9.026;2023-02-11T08:49:08;32.77;;;22.13;;
15287;SDS011;7745;48.708;9.026;2023-02-11T08:51:35;30.40;;;20.83;;
15287;SDS011;7745;48.708;9.026;2023-02-11T08:54:02;30.27;;;21.37;;
15287;SDS011;7745;48.708;9.026;2023-02-11T08:56:33;32.07;;;19.70;;
15287;SDS011;7745;48.708;9.026;2023-02-11T08:59:02;33.37;;;20.57;;
15287;SDS011;7745;48.708;9.026;2023-02-11T09:01:29;30.07;;;19.57;;
15287;SDS011;7745;48.708;9.026;2023-02-11T09:03:57;37.47;;;21.73;;
15287;SDS011;7745;48.708;9.026;2023-02-11T09:06:25;25.67;;;18.27;;
15287;SDS011;7745;48.708;9.026;2023-02-11T09:08:53;32.17;;;18.93;;
15287;SDS011;7745;48.708;9.026;2023-02-11T09:11:24;27.10;;;18.03;;
15287;SDS011;7745;48.708;9.026;2023-02-11T09:13:52;27.43;;;19.13;;
15287;SDS011;7745;48.708;9.026;2023-02-11T09:16:21;28.50;;;18.87;;
15287;SDS011;7745;48.708;9.026;2023-02-11T09:18:50;28.80;;;18.47;;
15287;SDS011;7745;48.708;9.026;2023-02-11T09:21:17;24.63;;;18.03;;
15287;SDS011;7745;48.708;9.026;2023-02-11T09:23:45;24.90;;;17.40;;
15287;SDS011;7745;48.708;9.026;2023-02-11T09:26:13;25.93;;;18.13;;
15287;SDS011;7745;48.708;9.026;2023-02-11T09:28:41;26.03;;;16.60;;
15287;SDS011;7745;48.708;9.026;2023-02-11T09:31:09;27.07;;;16.77;;
15287;SDS011;7745;48.708;9.026;2023-02-11T09:33:40;25.40;;;16.23;;
15287;SDS011;7745;48.708;9.026;2023-02-11T09:36:12;26.07;;;17.23;;
15287;SDS011;7745;48.708;9.026;2023-02-11T09:38:40;24.73;;;16.60;;
15287;SDS011;7745;48.708;9.026;2023-02-11T09:41:13;28.20;;;17.03;;
15287;SDS011;7745;48.708;9.026;2023-02-11T09:43:53;23.73;;;15.60;;
15287;SDS011;7745;48.708;9.026;2023-02-11T09:46:24;21.37;;;15.53;;
15287;SDS011;7745;48.708;9.026;2023-02-11T09:48:56;24.83;;;16.07;;
15287;SDS011;7745;48.708;9.026;2023-02-11T09:51:24;19.00;;;14.47;;
15287;SDS011;7745;48.708;9.026;2023-02-11T09:53:59;23.13;;;16.23;;
15287;SDS011;7745;48.708;9.026;2023-02-11T09:56:30;24.50;;;17.23;;
15287;SDS011;7745;48.708;9.026;2023-02-11T09:58:57;25.00;;;16.53;;
15287;SDS011;7745;48.708;9.026;2023-02-11T10:01:26;26.23;;;17.20;;
15287;SDS011;7745;48.708;9.026;2023-02-11T10:04:04;25.57;;;17.10;;
15287;SDS011;7745;48.708;9.026;2023-02-11T10:06:40;23.27;;;16.20;;
15287;SDS011;7745;48.708;9.026;2023-02-11T10:09:13;23.07;;;15.30;;
15287;SDS011;7745;48.708;9.026;2023-02-11T10:12:08;23.13;;;15.00;;
15287;SDS011;7745;48.708;9.026;2023-02-11T10:14:54;24.97;;;15.83;;
15287;SDS011;7745;48.708;9.026;2023-02-11T10:17:46;21.87;;;16.03;;
15287;SDS011;7745;48.708;9.026;2023-02-11T10:20:28;21.40;;;15.23;;
15287;SDS011;7745;48.708;9.026;2023-02-11T10:22:59;21.70;;;15.87;;
15287;SDS011;7745;48.708;9.026;2023-02-11T10:25:29;24.47;;;16.57;;
15287;SDS011;7745;48.708;9.026;2023-02-11T10:28:09;24.90;;;16.63;;
15287;SDS011;7745;48.708;9.026;2023-02-11T10:30:40;21.60;;;15.53;;
15287;SDS011;7745;48.708;9.026;2023-02-11T10:33:11;23.30;;;14.33;;
15287;SDS011;7745;48.708;9.026;2023-02-11T10:35:46;21.90;;;14.13;;
15287;SDS011;7745;48.708;9.026;2023-02-11T10:38:14;15.83;;;11.80;;
15287;SDS011;7745;48.708;9.026;2023-02-11T10:40:41;20.03;;;11.23;;
15287;SDS011;7745;48.708;9.026;2023-02-11T10:43:09;18.27;;;13.07;;
15287;SDS011;7745;48.708;9.026;2023-02-11T10:45:40;18.13;;;12.63;;
15287;SDS011;7745;48.708;9.026;2023-02-11T10:51:06;16.33;;;12.17;;
15287;SDS011;7745;48.708;9.026;2023-02-11T10:53:40;19.37;;;12.40;;
15287;SDS011;7745;48.708;9.026;2023-02-11T10:56:09;17.93;;;12.40;;
15287;SDS011;7745;48.708;9.026;2023-02-11T10:58:39;16.33;;;12.13;;
15287;SDS011;7745;48.708;9.026;2023-02-11T11:01:09;16.97;;;11.83;;
15287;SDS011;7745;48.708;9.026;2023-02-11T11:03:37;17.67;;;12.30;;
15287;SDS011;7745;48.708;9.026;2023-02-11T11:06:11;17.43;;;12.87;;
15287;SDS011;7745;48.708;9.026;2023-02-11T11:08:39;16.87;;;11.67;;
15287;SDS011;7745;48.708;9.026;2023-02-11T11:11:08;21.83;;;13.13;;
15287;SDS011;7745;48.708;9.026;2023-02-11T11:13:37;20.67;;;12.70;;
15287;SDS011;7745;48.708;9.026;2023-02-11T11:16:06;19.17;;;13.57;;
15287;SDS011;7745;48.708;9.026;2023-02-11T11:22:04;20.90;;;13.30;;
15287;SDS011;7745;48.708;9.026;2023-02-11T11:24:31;27.27;;;13.43;;
15287;SDS011;7745;48.708;9.026;2023-02-11T11:27:06;16.77;;;12.03;;
15287;SDS011;7745;48.708;9.026;2023-02-11T11:29:43;17.60;;;11.47;;
15287;SDS011;7745;48.708;9.026;2023-02-11T11:32:18;16.13;;;11.80;;
15287;SDS011;7745;48.708;9.026;2023-02-11T11:34:50;19.10;;;11.33;;
15287;SDS011;7745;48.708;9.026;2023-02-11T11:37:21;16.73;;;11.60;;
15287;SDS011;7745;48.708;9.026;2023-02-11T11:39:53;22.33;;;12.40;;
15287;SDS011;7745;48.708;9.026;2023-02-11T11:42:26;15.53;;;11.27;;
15287;SDS011;7745;48.708;9.026;2023-02-11T11:44:55;17.47;;;10.80;;
15287;SDS011;7745;48.708;9.026;2023-02-11T11:47:25;16.27;;;10.87;;
15287;SDS011;7745;48.708;9.026;2023-02-11T11:52:55;15.13;;;10.07;;
15287;SDS011;7745;48.708;9.026;2023-02-11T11:55:26;13.23;;;9.07;;
15287;SDS011;7745;48.708;9.026;2023-02-11T11:57:56;16.57;;;10.70;;
15287;SDS011;7745;48.708;9.026;2023-02-11T12:00:25;15.37;;;10.97;;
15287;SDS011;7745;48.708;9.026;2023-02-11T12:03:09;14.97;;;10.50;;
15287;SDS011;7745;48.708;9.026;2023-02-11T12:08:59;14.50;;;10.07;;
15287;SDS011;7745;48.708;9.026;2023-02-11T12:11:36;16.93;;;9.33;;
15287;SDS011;7745;48.708;9.026;2023-02-11T12:14:19;12.40;;;8.80;;
15287;SDS011;7745;48.708;9.026;2023-02-11T12:16:52;11.73;;;7.70;;
15287;SDS011;7745;48.708;9.026;2023-02-11T12:19:37;8.60;;;6.93;;
15287;SDS011;7745;48.708;9.026;2023-02-11T12:22:17;11.37;;;6.33;;
15287;SDS011;7745;48.708;9.026;2023-02-11T12:24:55;8.37;;;5.90;;
15287;SDS011;7745;48.708;9.026;2023-02-11T12:27:41;7.73;;;6.93;;
15287;SDS011;7745;48.708;9.026;2023-02-11T12:30:18;10.33;;;6.63;;
15287;SDS011;7745;48.708;9.026;2023-02-11T12:32:58;9.13;;;5.83;;
15287;SDS011;7745;48.708;9.026;2023-02-11T12:35:33;9.93;;;5.50;;
15287;SDS011;7745;48.708;9.026;2023-02-11T12:38:12;11.63;;;5.70;;
15287;SDS011;7745;48.708;9.026;2023-02-11T12:41:16;8.87;;;5.10;;
15287;SDS011;7745;48.708;9.026;2023-02-11T12:44:08;7.03;;;5.27;;
15287;SDS011;7745;48.708;9.026;2023-02-11T12:46:48;8.47;;;5.67;;
15287;SDS011;7745;48.708;9.026;2023-02-11T12:49:30;9.80;;;6.83;;
15287;SDS011;7745;48.708;9.026;2023-02-11T12:52:18;17.33;;;7.67;;
15287;SDS011;7745;48.708;9.026;2023-02-11T12:54:52;8.87;;;6.70;;
15287;SDS011;7745;48.708;9.026;2023-02-11T12:57:46;9.97;;;6.67;;
15287;SDS011;7745;48.708;9.026;2023-02-11T13:00:15;9.37;;;6.37;;
15287;SDS011;7745;48.708;9.026;2023-02-11T13:02:45;8.60;;;5.83;;
15287;SDS011;7745;48.708;9.026;2023-02-11T13:05:22;9.33;;;6.43;;
15287;SDS011;7745;48.708;9.026;2023-02-11T13:07:53;6.90;;;5.50;;
15287;SDS011;7745;48.708;9.026;2023-02-11T13:10:25;9.50;;;5.03;;
15287;SDS011;7745;48.708;9.026;2023-02-11T13:12:58;9.00;;;5.80;;
15287;SDS011;7745;48.708;9.026;2023-02-11T13:15:42;8.43;;;6.50;;
15287;SDS011;7745;48.708;9.026;2023-02-11T13:18:16;7.57;;;5.87;;
15287;SDS011;7745;48.708;9.026;2023-02-11T13:20:50;8.20;;;6.00;;
15287;SDS011;7745;48.708;9.026;2023-02-11T13:23:22;7.90;;;5.10;;
15287;SDS011;7745;48.708;9.026;2023-02-11T13:25:54;8.57;;;5.83;;
15287;SDS011;7745;48.708;9.026;2023-02-11T13:28:33;9.00;;;6.43;;
15287;SDS011;7745;48.708;9.026;2023-02-11T13:31:07;8.73;;;6.17;;
15287;SDS011;7745;48.708;9.026;2023-02-11T13:33:37;9.83;;;6.10;;
15287;SDS011;7745;48.708;9.026;2023-02-11T13:36:19;6.60;;;5.53;;
15287;SDS011;7745;48.708;9.026;2023-02-11T13:38:56;8.40;;;5.83;;
15287;SDS011;7745;48.708;9.026;2023-02-11T13:41:28;8.40;;;6.60;;
15287;SDS011;7745;48.708;9.026;2023-02-11T13:46:51;8.83;;;6.93;;
15287;SDS011;7745;48.708;9.026;2023-02-11T13:49:24;7.73;;;6.23;;
15287;SDS011;7745;48.708;9.026;2023-02-11T13:51:55;9.53;;;6.00;;
15287;SDS011;7745;48.708;9.026;2023-02-11T13:54:24;10.27;;;6.60;;
15287;SDS011;7745;48.708;9.026;2023-02-11T14:00:06;11.43;;;6.23;;
15287;SDS011;7745;48.708;9.026;2023-02-11T14:03:23;8.83;;;6.27;;
15287;SDS011;7745;48.708;9.026;2023-02-11T14:06:10;9.90;;;7.23;;
15287;SDS011;7745;48.708;9.026;2023-02-11T14:08:58;14.53;;;8.47;;
15287;SDS011;7745;48.708;9.026;2023-02-11T14:11:46;10.30;;;7.33;;
15287;SDS011;7745;48.708;9.026;2023-02-11T14:14:15;10.83;;;7.83;;
15287;SDS011;7745;48.708;9.026;2023-02-11T14:19:49;13.73;;;9.43;;
15287;SDS011;7745;48.708;9.026;2023-02-11T14:22:17;13.57;;;10.30;;
15287;SDS011;7745;48.708;9.026;2023-02-11T14:24:53;14.87;;;10.70;;
15287;SDS011;7745;48.708;9.026;2023-02-11T14:27:24;15.87;;;11.30;;
15287;SDS011;7745;48.708;9.026;2023-02-11T14:33:10;17.27;;;11.23;;
15287;SDS011;7745;48.708;9.026;2023-02-11T14:35:52;17.33;;;11.97;;
15287;SDS011;7745;48.708;9.026;2023-02-11T14:38:30;19.00;;;12.33;;
15287;SDS011;7745;48.708;9.026;2023-02-11T14:41:06;14.57;;;11.00;;
15287;SDS011;7745;48.708;9.026;2023-02-11T14:43:47;16.80;;;11.23;;
15287;SDS011;7745;48.708;9.026;2023-02-11T14:46:16;18.03;;;12.20;;
15287;SDS011;7745;48.708;9.026;2023-02-11T14:48:45;15.53;;;12.03;;
15287;SDS011;7745;48.708;9.026;2023-02-11T14:51:16;19.27;;;12.33;;
15287;SDS011;7745;48.708;9.026;2023-02-11T14:53:48;16.80;;;11.90;;
15287;SDS011;7745;48.708;9.026;2023-02-11T14:56:18;15.50;;;11.50;;
15287;SDS011;7745;48.708;9.026;2023-02-11T14:58:46;21.07;;;12.60;;
15287;SDS011;7745;48.708;9.026;2023-02-11T15:01:23;18.40;;;10.90;;
15287;SDS011;7745;48.708;9.026;2023-02-11T15:03:52;15.53;;;11.57;;
15287;SDS011;7745;48.708;9.026;2023-02-11T15:06:22;16.60;;;11.77;;
15287;SDS011;7745;48.708;9.026;2023-02-11T15:08:52;15.33;;;10.90;;
15287;SDS011;7745;48.708;9.026;2023-02-11T15:11:24;16.03;;;12.07;;
15287;SDS011;7745;48.708;9.026;2023-02-11T15:13:53;17.27;;;10.70;;
15287;SDS011;7745;48.708;9.026;2023-02-11T15:16:23;14.03;;;10.00;;
15287;SDS011;7745;48.708;9.026;2023-02-11T15:18:53;16.07;;;10.70;;
15287;SDS011;7745;48.708;9.026;2023-02-11T15:21:23;15.07;;;10.27;;
15287;SDS011;7745;48.708;9.026;2023-02-11T15:23:54;19.13;;;11.53;;
15287;SDS011;7745;48.708;9.026;2023-02-11T15:26:22;18.27;;;11.03;;
15287;SDS011;7745;48.708;9.026;2023-02-11T15:28:49;14.90;;;10.53;;